sensor_id;sensor_type;location;lat;lon;timestamp;P1;durP1;ratioP1;P2;durP2;ratioP2
36585;SDS011;22591;48.314;11.562;2023-12-29T00:02:07;3.28;;;3.08;;
36585;SDS011;22591;48.314;11.562;2023-12-29T00:04:32;2.50;;;2.28;;
36585;SDS011;22591;48.314;11.562;2023-12-29T00:06:58;2.80;;;2.20;;
36585;SDS011;22591;48.314;11.562;2023-12-29T00:09:24;2.55;;;2.42;;
36585;SDS011;22591;48.314;11.562;2023-12-29T00:11:49;2.45;;;2.25;;
36585;SDS011;22591;48.314;11.562;2023-12-29T00:14:16;2.40;;;2.30;;
36585;SDS011;22591;48.314;11.562;2023-12-29T00:16:42;3.03;;;2.20;;
36585;SDS011;22591;48.314;11.562;2023-12-29T00:19:09;2.97;;;2.10;;
36585;SDS011;22591;48.314;11.562;2023-12-29T00:21:35;2.22;;;2.13;;
36585;SDS011;22591;48.314;11.562;2023-12-29T00:24:01;2.60;;;2.40;;
36585;SDS011;22591;48.314;11.562;2023-12-29T00:26:27;1.73;;;1.63;;
36585;SDS011;22591;48.314;11.562;2023-12-29T00:28:53;2.28;;;2.10;;
36585;SDS011;22591;48.314;11.562;2023-12-29T00:31:19;2.20;;;2.10;;
36585;SDS011;22591;48.314;11.562;2023-12-29T00:33:45;1.85;;;1.75;;
36585;SDS011;22591;48.314;11.562;2023-12-29T00:36:17;2.20;;;2.10;;
36585;SDS011;22591;48.314;11.562;2023-12-29T00:38:43;2.53;;;2.33;;
36585;SDS011;22591;48.314;11.562;2023-12-29T00:41:08;2.03;;;1.92;;
36585;SDS011;22591;48.314;11.562;2023-12-29T00:43:34;1.80;;;1.70;;
36585;SDS011;22591;48.314;11.562;2023-12-29T00:46:03;3.33;;;2.00;;
36585;SDS011;22591;48.314;11.562;2023-12-29T00:48:30;2.50;;;2.40;;
36585;SDS011;22591;48.314;11.562;2023-12-29T00:50:56;2.70;;;1.90;;
36585;SDS011;22591;48.314;11.562;2023-12-29T00:53:21;4.45;;;2.17;;
36585;SDS011;22591;48.314;11.562;2023-12-29T00:55:47;2.28;;;2.17;;
36585;SDS011;22591;48.314;11.562;2023-12-29T00:58:13;1.75;;;1.65;;
36585;SDS011;22591;48.314;11.562;2023-12-29T01:00:38;2.30;;;2.10;;
36585;SDS011;22591;48.314;11.562;2023-12-29T01:03:04;2.13;;;1.95;;
36585;SDS011;22591;48.314;11.562;2023-12-29T01:05:30;1.90;;;1.80;;
36585;SDS011;22591;48.314;11.562;2023-12-29T01:07:55;2.30;;;1.92;;
36585;SDS011;22591;48.314;11.562;2023-12-29T01:10:21;2.40;;;2.20;;
36585;SDS011;22591;48.314;11.562;2023-12-29T01:12:46;2.10;;;2.00;;
36585;SDS011;22591;48.314;11.562;2023-12-29T01:15:12;1.85;;;1.75;;
36585;SDS011;22591;48.314;11.562;2023-12-29T01:17:38;2.20;;;2.10;;
36585;SDS011;22591;48.314;11.562;2023-12-29T01:20:04;2.28;;;2.17;;
36585;SDS011;22591;48.314;11.562;2023-12-29T01:22:30;2.00;;;1.90;;
36585;SDS011;22591;48.314;11.562;2023-12-29T01:24:55;1.95;;;1.85;;
36585;SDS011;22591;48.314;11.562;2023-12-29T01:27:23;2.53;;;2.35;;
36585;SDS011;22591;48.314;11.562;2023-12-29T01:29:49;2.05;;;1.95;;
36585;SDS011;22591;48.314;11.562;2023-12-29T01:32:14;2.00;;;1.90;;
36585;SDS011;22591;48.314;11.562;2023-12-29T01:34:40;2.00;;;1.90;;
36585;SDS011;22591;48.314;11.562;2023-12-29T01:37:05;2.20;;;2.08;;
36585;SDS011;22591;48.314;11.562;2023-12-29T01:39:31;3.47;;;2.45;;
36585;SDS011;22591;48.314;11.562;2023-12-29T01:41:58;2.35;;;2.15;;
36585;SDS011;22591;48.314;11.562;2023-12-29T01:44:24;2.40;;;2.20;;
36585;SDS011;22591;48.314;11.562;2023-12-29T01:46:50;2.35;;;2.00;;
36585;SDS011;22591;48.314;11.562;2023-12-29T01:49:19;2.17;;;1.92;;
36585;SDS011;22591;48.314;11.562;2023-12-29T01:51:52;1.85;;;1.75;;
36585;SDS011;22591;48.314;11.562;2023-12-29T01:54:20;1.92;;;1.83;;
36585;SDS011;22591;48.314;11.562;2023-12-29T01:56:48;2.03;;;1.92;;
36585;SDS011;22591;48.314;11.562;2023-12-29T01:59:15;2.33;;;2.13;;
36585;SDS011;22591;48.314;11.562;2023-12-29T02:01:41;2.05;;;1.95;;
36585;SDS011;22591;48.314;11.562;2023-12-29T02:04:08;2.17;;;2.08;;
36585;SDS011;22591;48.314;11.562;2023-12-29T02:06:37;3.20;;;2.70;;
36585;SDS011;22591;48.314;11.562;2023-12-29T02:09:03;2.50;;;2.40;;
36585;SDS011;22591;48.314;11.562;2023-12-29T02:11:29;2.10;;;2.00;;
36585;SDS011;22591;48.314;11.562;2023-12-29T02:13:55;1.70;;;1.60;;
36585;SDS011;22591;48.314;11.562;2023-12-29T02:16:22;1.88;;;1.80;;
36585;SDS011;22591;48.314;11.562;2023-12-29T02:18:53;3.03;;;2.08;;
36585;SDS011;22591;48.314;11.562;2023-12-29T02:21:24;1.83;;;1.73;;
36585;SDS011;22591;48.314;11.562;2023-12-29T02:23:50;2.03;;;1.90;;
36585;SDS011;22591;48.314;11.562;2023-12-29T02:26:15;2.08;;;1.98;;
36585;SDS011;22591;48.314;11.562;2023-12-29T02:28:44;1.90;;;1.80;;
36585;SDS011;22591;48.314;11.562;2023-12-29T02:31:18;2.38;;;2.28;;
36585;SDS011;22591;48.314;11.562;2023-12-29T02:33:47;2.60;;;2.50;;
36585;SDS011;22591;48.314;11.562;2023-12-29T02:36:16;2.22;;;2.13;;
36585;SDS011;22591;48.314;11.562;2023-12-29T02:38:42;2.40;;;2.13;;
36585;SDS011;22591;48.314;11.562;2023-12-29T02:41:09;3.75;;;1.90;;
36585;SDS011;22591;48.314;11.562;2023-12-29T02:43:36;2.95;;;2.25;;
36585;SDS011;22591;48.314;11.562;2023-12-29T02:46:01;2.60;;;2.40;;
36585;SDS011;22591;48.314;11.562;2023-12-29T02:48:27;1.90;;;1.80;;
36585;SDS011;22591;48.314;11.562;2023-12-29T02:50:52;2.15;;;2.05;;
36585;SDS011;22591;48.314;11.562;2023-12-29T02:53:18;2.65;;;2.50;;
36585;SDS011;22591;48.314;11.562;2023-12-29T02:55:43;2.47;;;2.38;;
36585;SDS011;22591;48.314;11.562;2023-12-29T02:58:09;2.35;;;2.25;;
36585;SDS011;22591;48.314;11.562;2023-12-29T03:00:34;2.58;;;2.38;;
36585;SDS011;22591;48.314;11.562;2023-12-29T03:03:00;2.50;;;2.40;;
36585;SDS011;22591;48.314;11.562;2023-12-29T03:05:25;2.53;;;2.35;;
36585;SDS011;22591;48.314;11.562;2023-12-29T03:07:51;3.53;;;2.40;;
36585;SDS011;22591;48.314;11.562;2023-12-29T03:10:17;2.25;;;2.15;;
36585;SDS011;22591;48.314;11.562;2023-12-29T03:12:42;2.58;;;2.38;;
36585;SDS011;22591;48.314;11.562;2023-12-29T03:15:08;2.50;;;2.40;;
36585;SDS011;22591;48.314;11.562;2023-12-29T03:17:34;2.25;;;2.15;;
36585;SDS011;22591;48.314;11.562;2023-12-29T03:20:00;2.65;;;2.55;;
36585;SDS011;22591;48.314;11.562;2023-12-29T03:22:27;2.58;;;2.47;;
36585;SDS011;22591;48.314;11.562;2023-12-29T03:24:52;2.53;;;2.33;;
36585;SDS011;22591;48.314;11.562;2023-12-29T03:27:18;2.50;;;2.40;;
36585;SDS011;22591;48.314;11.562;2023-12-29T03:29:44;3.22;;;2.65;;
36585;SDS011;22591;48.314;11.562;2023-12-29T03:32:09;3.10;;;2.60;;
36585;SDS011;22591;48.314;11.562;2023-12-29T03:34:35;3.10;;;2.63;;
36585;SDS011;22591;48.314;11.562;2023-12-29T03:37:00;2.22;;;2.13;;
36585;SDS011;22591;48.314;11.562;2023-12-29T03:39:26;2.50;;;2.30;;
36585;SDS011;22591;48.314;11.562;2023-12-29T03:41:51;2.80;;;2.60;;
36585;SDS011;22591;48.314;11.562;2023-12-29T03:44:17;2.53;;;2.42;;
36585;SDS011;22591;48.314;11.562;2023-12-29T03:46:43;2.92;;;2.72;;
36585;SDS011;22591;48.314;11.562;2023-12-29T03:49:09;2.67;;;2.58;;
36585;SDS011;22591;48.314;11.562;2023-12-29T03:51:34;3.00;;;2.80;;
36585;SDS011;22591;48.314;11.562;2023-12-29T03:54:00;2.20;;;2.10;;
36585;SDS011;22591;48.314;11.562;2023-12-29T03:56:26;3.00;;;2.80;;
36585;SDS011;22591;48.314;11.562;2023-12-29T03:58:51;2.33;;;2.22;;
36585;SDS011;22591;48.314;11.562;2023-12-29T04:01:17;3.15;;;2.33;;
36585;SDS011;22591;48.314;11.562;2023-12-29T04:03:43;2.60;;;2.40;;
36585;SDS011;22591;48.314;11.562;2023-12-29T04:06:09;2.72;;;2.53;;
36585;SDS011;22591;48.314;11.562;2023-12-29T04:08:35;2.85;;;2.65;;
36585;SDS011;22591;48.314;11.562;2023-12-29T04:11:02;2.65;;;2.30;;
36585;SDS011;22591;48.314;11.562;2023-12-29T04:13:28;3.38;;;2.38;;
36585;SDS011;22591;48.314;11.562;2023-12-29T04:15:53;3.88;;;2.60;;
36585;SDS011;22591;48.314;11.562;2023-12-29T04:18:20;2.53;;;2.33;;
36585;SDS011;22591;48.314;11.562;2023-12-29T04:20:46;2.13;;;2.03;;
36585;SDS011;22591;48.314;11.562;2023-12-29T04:23:12;2.42;;;2.33;;
36585;SDS011;22591;48.314;11.562;2023-12-29T04:25:38;3.00;;;2.70;;
36585;SDS011;22591;48.314;11.562;2023-12-29T04:28:04;5.95;;;2.67;;
36585;SDS011;22591;48.314;11.562;2023-12-29T04:30:30;2.85;;;2.15;;
36585;SDS011;22591;48.314;11.562;2023-12-29T04:32:55;2.40;;;2.25;;
36585;SDS011;22591;48.314;11.562;2023-12-29T04:35:21;2.08;;;1.98;;
36585;SDS011;22591;48.314;11.562;2023-12-29T04:37:46;2.33;;;2.22;;
36585;SDS011;22591;48.314;11.562;2023-12-29T04:40:12;3.47;;;2.17;;
36585;SDS011;22591;48.314;11.562;2023-12-29T04:42:38;2.47;;;2.28;;
36585;SDS011;22591;48.314;11.562;2023-12-29T04:45:04;2.58;;;2.25;;
36585;SDS011;22591;48.314;11.562;2023-12-29T04:47:30;2.60;;;2.35;;
36585;SDS011;22591;48.314;11.562;2023-12-29T04:49:55;2.63;;;2.53;;
36585;SDS011;22591;48.314;11.562;2023-12-29T04:52:21;2.38;;;2.17;;
36585;SDS011;22591;48.314;11.562;2023-12-29T04:54:47;2.47;;;2.38;;
36585;SDS011;22591;48.314;11.562;2023-12-29T04:57:12;2.25;;;2.15;;
36585;SDS011;22591;48.314;11.562;2023-12-29T04:59:38;2.53;;;2.42;;
36585;SDS011;22591;48.314;11.562;2023-12-29T05:02:04;2.28;;;2.17;;
36585;SDS011;22591;48.314;11.562;2023-12-29T05:04:29;2.40;;;2.30;;
36585;SDS011;22591;48.314;11.562;2023-12-29T05:06:55;2.15;;;2.03;;
36585;SDS011;22591;48.314;11.562;2023-12-29T05:09:20;2.08;;;1.92;;
36585;SDS011;22591;48.314;11.562;2023-12-29T05:11:46;2.47;;;2.30;;
36585;SDS011;22591;48.314;11.562;2023-12-29T05:14:11;2.58;;;2.45;;
36585;SDS011;22591;48.314;11.562;2023-12-29T05:16:37;2.30;;;2.17;;
36585;SDS011;22591;48.314;11.562;2023-12-29T05:19:02;2.40;;;2.30;;
36585;SDS011;22591;48.314;11.562;2023-12-29T05:21:28;2.47;;;2.28;;
36585;SDS011;22591;48.314;11.562;2023-12-29T05:23:54;2.30;;;2.13;;
36585;SDS011;22591;48.314;11.562;2023-12-29T05:26:19;2.65;;;2.45;;
36585;SDS011;22591;48.314;11.562;2023-12-29T05:28:45;2.25;;;2.15;;
36585;SDS011;22591;48.314;11.562;2023-12-29T05:31:10;2.55;;;2.40;;
36585;SDS011;22591;48.314;11.562;2023-12-29T05:33:36;3.80;;;2.10;;
36585;SDS011;22591;48.314;11.562;2023-12-29T05:36:08;2.45;;;2.35;;
36585;SDS011;22591;48.314;11.562;2023-12-29T05:38:35;2.53;;;2.33;;
36585;SDS011;22591;48.314;11.562;2023-12-29T05:41:02;2.88;;;2.63;;
36585;SDS011;22591;48.314;11.562;2023-12-29T05:43:29;4.43;;;2.63;;
36585;SDS011;22591;48.314;11.562;2023-12-29T05:45:55;2.38;;;2.28;;
36585;SDS011;22591;48.314;11.562;2023-12-29T05:48:21;4.07;;;2.70;;
36585;SDS011;22591;48.314;11.562;2023-12-29T05:50:47;2.53;;;2.33;;
36585;SDS011;22591;48.314;11.562;2023-12-29T05:53:12;2.83;;;2.55;;
36585;SDS011;22591;48.314;11.562;2023-12-29T05:55:40;2.25;;;2.15;;
36585;SDS011;22591;48.314;11.562;2023-12-29T05:58:05;2.97;;;2.75;;
36585;SDS011;22591;48.314;11.562;2023-12-29T06:00:31;2.40;;;2.20;;
36585;SDS011;22591;48.314;11.562;2023-12-29T06:02:57;2.58;;;2.42;;
36585;SDS011;22591;48.314;11.562;2023-12-29T06:05:22;2.50;;;2.40;;
36585;SDS011;22591;48.314;11.562;2023-12-29T06:07:48;2.92;;;2.72;;
36585;SDS011;22591;48.314;11.562;2023-12-29T06:10:13;2.88;;;2.67;;
36585;SDS011;22591;48.314;11.562;2023-12-29T06:12:39;2.38;;;2.28;;
36585;SDS011;22591;48.314;11.562;2023-12-29T06:15:04;2.92;;;2.50;;
36585;SDS011;22591;48.314;11.562;2023-12-29T06:17:30;2.45;;;2.35;;
36585;SDS011;22591;48.314;11.562;2023-12-29T06:19:57;3.15;;;2.80;;
36585;SDS011;22591;48.314;11.562;2023-12-29T06:22:23;2.50;;;2.33;;
36585;SDS011;22591;48.314;11.562;2023-12-29T06:24:48;2.75;;;2.55;;
36585;SDS011;22591;48.314;11.562;2023-12-29T06:27:14;2.92;;;2.72;;
36585;SDS011;22591;48.314;11.562;2023-12-29T06:29:41;2.97;;;2.30;;
36585;SDS011;22591;48.314;11.562;2023-12-29T06:32:07;2.88;;;2.63;;
36585;SDS011;22591;48.314;11.562;2023-12-29T06:34:33;2.47;;;2.38;;
36585;SDS011;22591;48.314;11.562;2023-12-29T06:36:59;2.42;;;2.33;;
36585;SDS011;22591;48.314;11.562;2023-12-29T06:39:25;2.50;;;2.40;;
36585;SDS011;22591;48.314;11.562;2023-12-29T06:41:51;2.75;;;2.55;;
36585;SDS011;22591;48.314;11.562;2023-12-29T06:44:16;2.85;;;2.67;;
36585;SDS011;22591;48.314;11.562;2023-12-29T06:46:42;3.17;;;2.50;;
36585;SDS011;22591;48.314;11.562;2023-12-29T06:49:08;2.83;;;2.63;;
36585;SDS011;22591;48.314;11.562;2023-12-29T06:51:33;3.15;;;2.45;;
36585;SDS011;22591;48.314;11.562;2023-12-29T06:54:00;5.88;;;3.00;;
36585;SDS011;22591;48.314;11.562;2023-12-29T06:56:26;2.65;;;2.47;;
36585;SDS011;22591;48.314;11.562;2023-12-29T06:58:52;3.08;;;2.88;;
36585;SDS011;22591;48.314;11.562;2023-12-29T07:01:18;3.05;;;2.85;;
36585;SDS011;22591;48.314;11.562;2023-12-29T07:03:43;2.75;;;2.55;;
36585;SDS011;22591;48.314;11.562;2023-12-29T07:06:09;3.50;;;2.75;;
36585;SDS011;22591;48.314;11.562;2023-12-29T07:08:35;3.30;;;3.10;;
36585;SDS011;22591;48.314;11.562;2023-12-29T07:11:01;3.92;;;3.63;;
36585;SDS011;22591;48.314;11.562;2023-12-29T07:13:27;5.38;;;3.25;;
36585;SDS011;22591;48.314;11.562;2023-12-29T07:15:53;3.15;;;2.78;;
36585;SDS011;22591;48.314;11.562;2023-12-29T07:18:19;3.03;;;2.83;;
36585;SDS011;22591;48.314;11.562;2023-12-29T07:20:44;2.90;;;2.70;;
36585;SDS011;22591;48.314;11.562;2023-12-29T07:23:10;2.42;;;2.33;;
36585;SDS011;22591;48.314;11.562;2023-12-29T07:25:35;2.75;;;2.55;;
36585;SDS011;22591;48.314;11.562;2023-12-29T07:28:01;2.55;;;2.40;;
36585;SDS011;22591;48.314;11.562;2023-12-29T07:30:26;2.42;;;2.33;;
36585;SDS011;22591;48.314;11.562;2023-12-29T07:32:52;2.88;;;2.67;;
36585;SDS011;22591;48.314;11.562;2023-12-29T07:35:17;3.90;;;2.13;;
36585;SDS011;22591;48.314;11.562;2023-12-29T07:37:44;2.03;;;1.92;;
36585;SDS011;22591;48.314;11.562;2023-12-29T07:40:13;2.70;;;2.50;;
36585;SDS011;22591;48.314;11.562;2023-12-29T07:42:39;2.63;;;2.53;;
36585;SDS011;22591;48.314;11.562;2023-12-29T07:45:06;2.15;;;1.95;;
36585;SDS011;22591;48.314;11.562;2023-12-29T07:47:32;2.30;;;2.17;;
36585;SDS011;22591;48.314;11.562;2023-12-29T07:49:57;2.58;;;2.47;;
36585;SDS011;22591;48.314;11.562;2023-12-29T07:52:23;2.35;;;2.20;;
36585;SDS011;22591;48.314;11.562;2023-12-29T07:54:49;2.25;;;2.15;;
36585;SDS011;22591;48.314;11.562;2023-12-29T07:57:14;2.50;;;2.30;;
36585;SDS011;22591;48.314;11.562;2023-12-29T07:59:40;2.50;;;2.22;;
36585;SDS011;22591;48.314;11.562;2023-12-29T08:02:06;2.05;;;1.95;;
36585;SDS011;22591;48.314;11.562;2023-12-29T08:04:32;2.55;;;2.35;;
36585;SDS011;22591;48.314;11.562;2023-12-29T08:06:57;2.50;;;2.13;;
36585;SDS011;22591;48.314;11.562;2023-12-29T08:09:23;2.45;;;2.25;;
36585;SDS011;22591;48.314;11.562;2023-12-29T08:11:50;2.00;;;1.90;;
36585;SDS011;22591;48.314;11.562;2023-12-29T08:14:15;1.90;;;1.80;;
36585;SDS011;22591;48.314;11.562;2023-12-29T08:16:41;2.58;;;1.95;;
36585;SDS011;22591;48.314;11.562;2023-12-29T08:19:06;1.65;;;1.55;;
36585;SDS011;22591;48.314;11.562;2023-12-29T08:21:32;5.88;;;2.70;;
36585;SDS011;22591;48.314;11.562;2023-12-29T08:23:58;2.20;;;2.00;;
36585;SDS011;22591;48.314;11.562;2023-12-29T08:26:23;2.10;;;1.90;;
36585;SDS011;22591;48.314;11.562;2023-12-29T08:28:49;2.47;;;2.28;;
36585;SDS011;22591;48.314;11.562;2023-12-29T08:31:15;2.33;;;2.13;;
36585;SDS011;22591;48.314;11.562;2023-12-29T08:33:41;2.40;;;2.20;;
36585;SDS011;22591;48.314;11.562;2023-12-29T08:36:07;2.45;;;2.35;;
36585;SDS011;22591;48.314;11.562;2023-12-29T08:38:32;2.35;;;2.15;;
36585;SDS011;22591;48.314;11.562;2023-12-29T08:40:58;1.55;;;1.55;;
36585;SDS011;22591;48.314;11.562;2023-12-29T08:43:24;3.83;;;2.13;;
36585;SDS011;22591;48.314;11.562;2023-12-29T08:45:50;2.63;;;2.03;;
36585;SDS011;22591;48.314;11.562;2023-12-29T08:48:16;1.88;;;1.77;;
36585;SDS011;22591;48.314;11.562;2023-12-29T08:50:42;1.98;;;1.88;;
36585;SDS011;22591;48.314;11.562;2023-12-29T08:53:08;1.65;;;1.55;;
36585;SDS011;22591;48.314;11.562;2023-12-29T08:55:35;2.05;;;1.95;;
36585;SDS011;22591;48.314;11.562;2023-12-29T08:58:02;2.67;;;2.58;;
36585;SDS011;22591;48.314;11.562;2023-12-29T09:00:29;2.05;;;1.95;;
36585;SDS011;22591;48.314;11.562;2023-12-29T09:02:55;2.05;;;1.95;;
36585;SDS011;22591;48.314;11.562;2023-12-29T09:05:21;1.92;;;1.83;;
36585;SDS011;22591;48.314;11.562;2023-12-29T09:07:47;3.30;;;2.45;;
36585;SDS011;22591;48.314;11.562;2023-12-29T09:10:13;2.40;;;2.30;;
36585;SDS011;22591;48.314;11.562;2023-12-29T09:12:39;1.95;;;1.85;;
36585;SDS011;22591;48.314;11.562;2023-12-29T09:15:06;2.20;;;2.10;;
36585;SDS011;22591;48.314;11.562;2023-12-29T09:17:32;2.25;;;2.05;;
36585;SDS011;22591;48.314;11.562;2023-12-29T09:19:58;2.63;;;2.53;;
36585;SDS011;22591;48.314;11.562;2023-12-29T09:22:23;2.40;;;2.25;;
36585;SDS011;22591;48.314;11.562;2023-12-29T09:24:49;2.70;;;2.50;;
36585;SDS011;22591;48.314;11.562;2023-12-29T09:27:14;2.05;;;1.90;;
36585;SDS011;22591;48.314;11.562;2023-12-29T09:29:40;2.40;;;1.75;;
36585;SDS011;22591;48.314;11.562;2023-12-29T09:32:06;3.55;;;2.83;;
36585;SDS011;22591;48.314;11.562;2023-12-29T09:34:32;2.95;;;1.98;;
36585;SDS011;22591;48.314;11.562;2023-12-29T09:36:57;2.20;;;2.00;;
36585;SDS011;22591;48.314;11.562;2023-12-29T09:39:23;2.90;;;1.98;;
36585;SDS011;22591;48.314;11.562;2023-12-29T09:41:51;1.85;;;1.75;;
36585;SDS011;22591;48.314;11.562;2023-12-29T09:44:18;1.92;;;1.83;;
36585;SDS011;22591;48.314;11.562;2023-12-29T09:46:48;3.42;;;1.60;;
36585;SDS011;22591;48.314;11.562;2023-12-29T09:49:15;2.13;;;2.00;;
36585;SDS011;22591;48.314;11.562;2023-12-29T09:51:43;1.90;;;1.80;;
36585;SDS011;22591;48.314;11.562;2023-12-29T09:54:09;3.22;;;1.67;;
36585;SDS011;22591;48.314;11.562;2023-12-29T09:56:36;2.28;;;2.10;;
36585;SDS011;22591;48.314;11.562;2023-12-29T09:59:02;1.90;;;1.80;;
36585;SDS011;22591;48.314;11.562;2023-12-29T10:01:29;2.83;;;2.00;;
36585;SDS011;22591;48.314;11.562;2023-12-29T10:03:55;2.00;;;1.90;;
36585;SDS011;22591;48.314;11.562;2023-12-29T10:06:23;2.15;;;2.05;;
36585;SDS011;22591;48.314;11.562;2023-12-29T10:08:49;1.80;;;1.70;;
36585;SDS011;22591;48.314;11.562;2023-12-29T10:11:16;2.55;;;2.22;;
36585;SDS011;22591;48.314;11.562;2023-12-29T10:13:46;1.80;;;1.70;;
36585;SDS011;22591;48.314;11.562;2023-12-29T10:16:15;1.73;;;1.63;;
36585;SDS011;22591;48.314;11.562;2023-12-29T10:21:55;2.00;;;1.90;;
36585;SDS011;22591;48.314;11.562;2023-12-29T10:24:32;2.08;;;1.98;;
36585;SDS011;22591;48.314;11.562;2023-12-29T10:26:59;1.92;;;1.83;;
36585;SDS011;22591;48.314;11.562;2023-12-29T10:29:26;1.85;;;1.75;;
36585;SDS011;22591;48.314;11.562;2023-12-29T10:31:52;1.70;;;1.60;;
36585;SDS011;22591;48.314;11.562;2023-12-29T10:34:19;1.90;;;1.40;;
36585;SDS011;22591;48.314;11.562;2023-12-29T10:36:54;2.60;;;1.50;;
36585;SDS011;22591;48.314;11.562;2023-12-29T10:39:20;1.60;;;1.50;;
36585;SDS011;22591;48.314;11.562;2023-12-29T10:41:47;2.00;;;1.80;;
36585;SDS011;22591;48.314;11.562;2023-12-29T10:44:12;3.97;;;1.92;;
36585;SDS011;22591;48.314;11.562;2023-12-29T10:46:38;1.77;;;1.60;;
36585;SDS011;22591;48.314;11.562;2023-12-29T10:49:10;1.70;;;1.60;;
36585;SDS011;22591;48.314;11.562;2023-12-29T10:51:37;1.55;;;1.45;;
36585;SDS011;22591;48.314;11.562;2023-12-29T10:54:04;1.83;;;1.73;;
36585;SDS011;22591;48.314;11.562;2023-12-29T10:56:30;1.60;;;1.50;;
36585;SDS011;22591;48.314;11.562;2023-12-29T10:58:57;1.30;;;1.27;;
36585;SDS011;22591;48.314;11.562;2023-12-29T11:01:24;1.58;;;1.48;;
36585;SDS011;22591;48.314;11.562;2023-12-29T11:04:03;1.60;;;1.50;;
36585;SDS011;22591;48.314;11.562;2023-12-29T11:06:39;1.63;;;1.52;;
36585;SDS011;22591;48.314;11.562;2023-12-29T11:09:10;1.67;;;1.58;;
36585;SDS011;22591;48.314;11.562;2023-12-29T11:11:36;1.80;;;1.70;;
36585;SDS011;22591;48.314;11.562;2023-12-29T11:14:04;1.42;;;1.40;;
36585;SDS011;22591;48.314;11.562;2023-12-29T11:16:30;1.73;;;1.63;;
36585;SDS011;22591;48.314;11.562;2023-12-29T11:18:59;1.70;;;1.60;;
36585;SDS011;22591;48.314;11.562;2023-12-29T11:21:26;3.53;;;1.73;;
36585;SDS011;22591;48.314;11.562;2023-12-29T11:23:56;2.67;;;1.60;;
36585;SDS011;22591;48.314;11.562;2023-12-29T11:26:23;1.42;;;1.42;;
36585;SDS011;22591;48.314;11.562;2023-12-29T11:28:50;1.92;;;1.83;;
36585;SDS011;22591;48.314;11.562;2023-12-29T11:31:18;1.33;;;1.33;;
36585;SDS011;22591;48.314;11.562;2023-12-29T11:33:48;1.40;;;1.40;;
36585;SDS011;22591;48.314;11.562;2023-12-29T11:36:23;1.80;;;1.70;;
36585;SDS011;22591;48.314;11.562;2023-12-29T11:41:45;1.52;;;1.42;;
36585;SDS011;22591;48.314;11.562;2023-12-29T11:44:31;1.98;;;1.75;;
36585;SDS011;22591;48.314;11.562;2023-12-29T11:46:58;1.95;;;1.85;;
36585;SDS011;22591;48.314;11.562;2023-12-29T11:49:26;1.60;;;1.50;;
36585;SDS011;22591;48.314;11.562;2023-12-29T11:51:51;1.90;;;1.80;;
36585;SDS011;22591;48.314;11.562;2023-12-29T11:54:24;1.73;;;1.63;;
36585;SDS011;22591;48.314;11.562;2023-12-29T11:56:53;1.58;;;1.48;;
36585;SDS011;22591;48.314;11.562;2023-12-29T11:59:25;1.80;;;1.70;;
36585;SDS011;22591;48.314;11.562;2023-12-29T12:01:53;1.92;;;1.77;;
36585;SDS011;22591;48.314;11.562;2023-12-29T12:07:07;1.73;;;1.63;;
36585;SDS011;22591;48.314;11.562;2023-12-29T12:09:37;1.60;;;1.50;;
36585;SDS011;22591;48.314;11.562;2023-12-29T12:12:04;1.58;;;1.40;;
36585;SDS011;22591;48.314;11.562;2023-12-29T12:17:26;1.67;;;1.58;;
36585;SDS011;22591;48.314;11.562;2023-12-29T12:19:55;2.30;;;2.20;;
36585;SDS011;22591;48.314;11.562;2023-12-29T12:22:28;2.25;;;1.85;;
36585;SDS011;22591;48.314;11.562;2023-12-29T12:24:56;1.67;;;1.58;;
36585;SDS011;22591;48.314;11.562;2023-12-29T12:27:25;2.17;;;1.98;;
36585;SDS011;22591;48.314;11.562;2023-12-29T12:29:55;1.73;;;1.60;;
36585;SDS011;22591;48.314;11.562;2023-12-29T12:32:26;1.98;;;1.88;;
36585;SDS011;22591;48.314;11.562;2023-12-29T12:34:53;1.67;;;1.60;;
36585;SDS011;22591;48.314;11.562;2023-12-29T12:37:23;1.95;;;1.85;;
36585;SDS011;22591;48.314;11.562;2023-12-29T12:39:51;4.05;;;2.40;;
36585;SDS011;22591;48.314;11.562;2023-12-29T12:42:19;2.28;;;2.10;;
36585;SDS011;22591;48.314;11.562;2023-12-29T12:47:45;1.77;;;1.67;;
36585;SDS011;22591;48.314;11.562;2023-12-29T12:50:17;1.80;;;1.70;;
36585;SDS011;22591;48.314;11.562;2023-12-29T12:52:44;2.75;;;2.00;;
36585;SDS011;22591;48.314;11.562;2023-12-29T12:55:10;2.35;;;1.85;;
36585;SDS011;22591;48.314;11.562;2023-12-29T12:57:37;2.28;;;1.67;;
36585;SDS011;22591;48.314;11.562;2023-12-29T13:00:03;2.25;;;2.05;;
36585;SDS011;22591;48.314;11.562;2023-12-29T13:02:32;1.98;;;1.77;;
36585;SDS011;22591;48.314;11.562;2023-12-29T13:04:59;2.00;;;1.88;;
36585;SDS011;22591;48.314;11.562;2023-12-29T13:07:27;1.98;;;1.88;;
36585;SDS011;22591;48.314;11.562;2023-12-29T13:09:54;1.90;;;1.80;;
36585;SDS011;22591;48.314;11.562;2023-12-29T13:12:21;3.60;;;2.05;;
36585;SDS011;22591;48.314;11.562;2023-12-29T13:14:48;1.63;;;1.60;;
36585;SDS011;22591;48.314;11.562;2023-12-29T13:17:14;1.60;;;1.60;;
36585;SDS011;22591;48.314;11.562;2023-12-29T13:19:53;1.85;;;1.75;;
36585;SDS011;22591;48.314;11.562;2023-12-29T13:22:24;2.95;;;1.70;;
36585;SDS011;22591;48.314;11.562;2023-12-29T13:24:53;1.85;;;1.75;;
36585;SDS011;22591;48.314;11.562;2023-12-29T13:27:20;2.33;;;1.50;;
36585;SDS011;22591;48.314;11.562;2023-12-29T13:29:46;1.98;;;1.85;;
36585;SDS011;22591;48.314;11.562;2023-12-29T13:32:15;3.17;;;1.63;;
36585;SDS011;22591;48.314;11.562;2023-12-29T13:35:04;1.83;;;1.73;;
36585;SDS011;22591;48.314;11.562;2023-12-29T13:37:48;1.70;;;1.60;;
36585;SDS011;22591;48.314;11.562;2023-12-29T13:40:34;2.85;;;1.70;;
36585;SDS011;22591;48.314;11.562;2023-12-29T13:43:04;1.80;;;1.70;;
36585;SDS011;22591;48.314;11.562;2023-12-29T13:45:35;1.80;;;1.70;;
36585;SDS011;22591;48.314;11.562;2023-12-29T13:48:03;2.30;;;1.92;;
36585;SDS011;22591;48.314;11.562;2023-12-29T13:50:32;1.90;;;1.80;;
36585;SDS011;22591;48.314;11.562;2023-12-29T13:52:59;1.65;;;1.55;;
36585;SDS011;22591;48.314;11.562;2023-12-29T13:55:25;1.90;;;1.80;;
36585;SDS011;22591;48.314;11.562;2023-12-29T13:57:51;1.70;;;1.60;;
36585;SDS011;22591;48.314;11.562;2023-12-29T14:02:48;2.17;;;1.75;;
36585;SDS011;22591;48.314;11.562;2023-12-29T14:08:00;2.03;;;1.92;;
36585;SDS011;22591;48.314;11.562;2023-12-29T14:10:42;1.90;;;1.70;;
36585;SDS011;22591;48.314;11.562;2023-12-29T14:13:08;2.33;;;2.22;;
36585;SDS011;22591;48.314;11.562;2023-12-29T14:15:38;1.92;;;1.83;;
36585;SDS011;22591;48.314;11.562;2023-12-29T14:21:01;1.60;;;1.50;;
36585;SDS011;22591;48.314;11.562;2023-12-29T14:23:26;1.92;;;1.83;;
36585;SDS011;22591;48.314;11.562;2023-12-29T14:26:01;1.58;;;1.48;;
36585;SDS011;22591;48.314;11.562;2023-12-29T14:28:27;1.60;;;1.50;;
36585;SDS011;22591;48.314;11.562;2023-12-29T14:31:04;2.40;;;1.88;;
36585;SDS011;22591;48.314;11.562;2023-12-29T14:33:29;2.50;;;1.95;;
36585;SDS011;22591;48.314;11.562;2023-12-29T14:35:55;1.70;;;1.60;;
36585;SDS011;22591;48.314;11.562;2023-12-29T14:38:20;1.75;;;1.65;;
36585;SDS011;22591;48.314;11.562;2023-12-29T14:40:48;1.92;;;1.83;;
36585;SDS011;22591;48.314;11.562;2023-12-29T14:43:14;2.20;;;2.10;;
36585;SDS011;22591;48.314;11.562;2023-12-29T14:45:39;1.70;;;1.60;;
36585;SDS011;22591;48.314;11.562;2023-12-29T14:48:05;1.92;;;1.40;;
36585;SDS011;22591;48.314;11.562;2023-12-29T14:50:32;1.80;;;1.70;;
36585;SDS011;22591;48.314;11.562;2023-12-29T14:52:59;1.73;;;1.63;;
36585;SDS011;22591;48.314;11.562;2023-12-29T14:55:24;1.40;;;1.30;;